Time;durP1;ratioP1;P1;durP2;ratioP2;P2;SDS_P1;SDS_P2;PMS_P1;PMS_P2;Temp;Humidity;BMP_temperature;BMP_pressure;BME280_temperature;BME280_humidity;BME280_pressure;Samples;Min_cycle;Max_cycle;Signal;HPM_P1;HPM_P2
2024/03/10 00:02:13;;;;;;;30.13;18.53;;;;;;;;;;4350577;32;329117;-69
2024/03/10 00:04:41;;;;;;;38.47;19.23;;;;;;;;;;4334426;32;416160;-71
2024/03/10 00:07:07;;;;;;;32.30;17.97;;;;;;;;;;4352211;32;319227;-71
2024/03/10 00:09:34;;;;;;;30.83;18.90;;;;;;;;;;4341051;32;319536;-69
2024/03/10 00:12:01;;;;;;;30.57;18.17;;;;;;;;;;4351009;32;346633;-69
2024/03/10 00:14:28;;;;;;;26.03;16.47;;;;;;;;;;4339717;32;319827;-70
2024/03/10 00:16:55;;;;;;;27.13;17.80;;;;;;;;;;4350548;32;319375;-69
2024/03/10 00:19:25;;;;;;;29.40;16.93;;;;;;;;;;4341762;32;319323;-69
2024/03/10 00:21:54;;;;;;;29.97;17.57;;;;;;;;;;4351723;32;318724;-69
2024/03/10 00:24:20;;;;;;;25.23;15.97;;;;;;;;;;4340785;32;318847;-69
2024/03/10 00:26:47;;;;;;;26.93;16.20;;;;;;;;;;4348069;32;319370;-69
2024/03/10 00:29:14;;;;;;;27.50;15.73;;;;;;;;;;4351572;32;319248;-70
2024/03/10 00:31:41;;;;;;;20.50;14.10;;;;;;;;;;4338061;32;417656;-69
2024/03/10 00:34:07;;;;;;;23.37;14.80;;;;;;;;;;4351262;32;319458;-70
2024/03/10 00:36:36;;;;;;;23.53;14.07;;;;;;;;;;4338439;32;319254;-69
2024/03/10 00:39:04;;;;;;;22.93;14.97;;;;;;;;;;4351867;32;319625;-69
2024/03/10 00:41:31;;;;;;;19.87;13.17;;;;;;;;;;4340711;32;320226;-69
2024/03/10 00:43:58;;;;;;;32.10;16.47;;;;;;;;;;4350694;32;319908;-69
2024/03/10 00:46:25;;;;;;;39.73;24.57;;;;;;;;;;4341846;32;319423;-69
2024/03/10 00:48:52;;;;;;;78.40;32.67;;;;;;;;;;4349644;32;319570;-73
2024/03/10 00:51:19;;;;;;;26.37;14.90;;;;;;;;;;4340082;32;375361;-71
2024/03/10 00:53:47;;;;;;;32.83;17.27;;;;;;;;;;4354536;32;320950;-72
2024/03/10 00:56:18;;;;;;;45.27;21.10;;;;;;;;;;4350528;32;320103;-72
2024/03/10 00:58:47;;;;;;;41.23;21.57;;;;;;;;;;4350612;32;318374;-71
2024/03/10 01:01:14;;;;;;;37.13;19.50;;;;;;;;;;4354330;32;319513;-68
2024/03/10 01:03:43;;;;;;;33.77;17.90;;;;;;;;;;4342228;32;418684;-67
2024/03/10 01:06:12;;;;;;;36.47;17.73;;;;;;;;;;4354065;32;319476;-70
2024/03/10 01:08:39;;;;;;;23.63;15.93;;;;;;;;;;4341839;32;318859;-68
2024/03/10 01:11:07;;;;;;;22.57;15.37;;;;;;;;;;4353355;32;319373;-69
2024/03/10 01:13:34;;;;;;;22.57;14.10;;;;;;;;;;4344229;32;319328;-71
2024/03/10 01:16:02;;;;;;;26.67;15.60;;;;;;;;;;4353854;32;322129;-69
2024/03/10 01:18:29;;;;;;;23.87;13.80;;;;;;;;;;4339614;32;344483;-69
2024/03/10 01:20:56;;;;;;;21.57;14.63;;;;;;;;;;4353784;32;319812;-68
2024/03/10 01:23:23;;;;;;;22.57;15.53;;;;;;;;;;4342954;32;320181;-68
2024/03/10 01:25:50;;;;;;;32.33;20.10;;;;;;;;;;4353513;32;321780;-68
2024/03/10 01:28:18;;;;;;;32.60;20.30;;;;;;;;;;4342913;32;360705;-69
2024/03/10 01:30:46;;;;;;;34.27;18.93;;;;;;;;;;4350059;32;319748;-68
2024/03/10 01:33:13;;;;;;;21.50;14.67;;;;;;;;;;4353863;32;319787;-69
2024/03/10 01:35:42;;;;;;;23.97;16.00;;;;;;;;;;4341085;32;420189;-70
2024/03/10 01:38:09;;;;;;;17.20;12.30;;;;;;;;;;4353523;32;319497;-72
2024/03/10 01:40:36;;;;;;;13.17;9.77;;;;;;;;;;4340730;32;319493;-68
2024/03/10 01:43:03;;;;;;;12.70;9.30;;;;;;;;;;4353319;32;317882;-69
2024/03/10 01:45:32;;;;;;;12.30;8.67;;;;;;;;;;4343585;32;318253;-69
2024/03/10 01:47:59;;;;;;;12.80;8.63;;;;;;;;;;4353105;32;318271;-69
2024/03/10 01:50:27;;;;;;;11.13;8.60;;;;;;;;;;4342546;32;318475;-70
2024/03/10 01:52:53;;;;;;;14.00;9.33;;;;;;;;;;4352567;32;318456;-69
2024/03/10 01:55:21;;;;;;;18.60;9.97;;;;;;;;;;4341725;32;349910;-70
2024/03/10 01:57:48;;;;;;;18.50;10.70;;;;;;;;;;4352528;32;317732;-70
2024/03/10 02:00:16;;;;;;;14.03;10.60;;;;;;;;;;4346083;32;319418;-69
2024/03/10 02:02:44;;;;;;;10.83;8.63;;;;;;;;;;4349820;32;319698;-68
2024/03/10 02:05:11;;;;;;;16.27;10.30;;;;;;;;;;4352253;32;318697;-71
2024/03/10 02:07:38;;;;;;;19.40;10.63;;;;;;;;;;4342708;32;319271;-68
2024/03/10 02:10:07;;;;;;;44.30;24.03;;;;;;;;;;4353524;32;318787;-69
2024/03/10 02:12:35;;;;;;;37.90;20.37;;;;;;;;;;4341231;32;319434;-68
2024/03/10 02:15:06;;;;;;;27.57;18.07;;;;;;;;;;4352825;32;319261;-69
2024/03/10 02:17:36;;;;;;;20.90;13.50;;;;;;;;;;4343209;32;319489;-69
2024/03/10 02:20:14;;;;;;;19.73;13.60;;;;;;;;;;4351717;32;319618;-69
2024/03/10 02:22:41;;;;;;;15.33;11.60;;;;;;;;;;4337197;32;417571;-69
2024/03/10 02:25:12;;;;;;;15.57;12.20;;;;;;;;;;4352455;32;319507;-72
2024/03/10 02:27:44;;;;;;;21.23;11.23;;;;;;;;;;4343337;32;318613;-70
2024/03/10 02:30:29;;;;;;;21.23;11.47;;;;;;;;;;4352969;32;319577;-70
2024/03/10 02:49:22;;;;;;;22.53;10.93;;;;;;;;;;4342989;32;319584;-69
2024/03/10 02:51:49;;;;;;;16.90;10.07;;;;;;;;;;4352855;32;319279;-70
2024/03/10 02:54:16;;;;;;;14.17;9.20;;;;;;;;;;4343041;32;319691;-72
2024/03/10 02:56:43;;;;;;;14.87;9.90;;;;;;;;;;4350960;32;318176;-69
2024/03/10 02:59:11;;;;;;;15.10;10.53;;;;;;;;;;4351331;32;318449;-69
2024/03/10 03:01:38;;;;;;;20.73;11.40;;;;;;;;;;4341788;32;319434;-69
2024/03/10 03:04:05;;;;;;;15.77;11.60;;;;;;;;;;4352523;32;319284;-70
2024/03/10 03:06:32;;;;;;;16.63;11.23;;;;;;;;;;4339987;32;319796;-69
2024/03/10 03:08:59;;;;;;;15.53;11.20;;;;;;;;;;4352419;32;319679;-71
2024/03/10 03:11:26;;;;;;;16.93;10.67;;;;;;;;;;4341305;32;319175;-71
2024/03/10 03:13:52;;;;;;;13.23;9.67;;;;;;;;;;4351207;32;319539;-69
2024/03/10 03:16:20;;;;;;;13.60;9.77;;;;;;;;;;4342239;32;318326;-69
2024/03/10 03:18:47;;;;;;;14.60;9.80;;;;;;;;;;4350408;32;318066;-71
2024/03/10 03:21:14;;;;;;;18.07;11.80;;;;;;;;;;4352333;32;317601;-71
2024/03/10 03:23:41;;;;;;;24.53;16.57;;;;;;;;;;4339362;32;418727;-69
2024/03/10 03:26:08;;;;;;;22.63;16.43;;;;;;;;;;4352611;32;319757;-69
2024/03/10 03:28:35;;;;;;;23.90;15.20;;;;;;;;;;4339626;32;319353;-69
2024/03/10 03:31:03;;;;;;;21.63;14.20;;;;;;;;;;4351635;32;319845;-71
2024/03/10 03:33:31;;;;;;;18.93;13.17;;;;;;;;;;4340449;32;319600;-69
2024/03/10 03:35:58;;;;;;;21.37;14.43;;;;;;;;;;4351622;32;318898;-70
2024/03/10 03:38:25;;;;;;;22.70;14.70;;;;;;;;;;4341189;32;319451;-70
2024/03/10 03:40:52;;;;;;;21.40;14.03;;;;;;;;;;4349929;32;319207;-70
2024/03/10 03:43:19;;;;;;;20.67;13.40;;;;;;;;;;4342675;32;319889;-72
2024/03/10 03:45:46;;;;;;;17.80;12.37;;;;;;;;;;4351731;32;319244;-71
2024/03/10 03:48:12;;;;;;;16.70;11.97;;;;;;;;;;4351200;32;319637;-69
2024/03/10 03:50:40;;;;;;;16.80;12.10;;;;;;;;;;4339921;32;319183;-69
2024/03/10 03:53:08;;;;;;;17.83;12.40;;;;;;;;;;4351263;32;318801;-69
2024/03/10 03:55:35;;;;;;;15.60;10.27;;;;;;;;;;4342334;32;318430;-70
2024/03/10 03:58:02;;;;;;;15.20;11.07;;;;;;;;;;4352182;32;318140;-69
2024/03/10 04:00:30;;;;;;;17.47;10.93;;;;;;;;;;4339476;32;318578;-69
2024/03/10 04:02:56;;;;;;;18.67;10.80;;;;;;;;;;4324322;32;318635;-71
2024/03/10 04:05:23;;;;;;;12.63;9.60;;;;;;;;;;4350591;32;318487;-70
2024/03/10 04:07:51;;;;;;;15.40;8.77;;;;;;;;;;4352029;32;317568;-69
2024/03/10 04:10:18;;;;;;;13.90;9.17;;;;;;;;;;4334767;32;417401;-71
2024/03/10 04:12:45;;;;;;;15.47;10.07;;;;;;;;;;4350922;32;317420;-70
2024/03/10 04:15:12;;;;;;;24.43;10.93;;;;;;;;;;4342776;32;318775;-69
2024/03/10 04:17:38;;;;;;;18.50;9.20;;;;;;;;;;4352999;32;318835;-69
2024/03/10 04:20:12;;;;;;;19.30;11.07;;;;;;;;;;4338407;32;317496;-70
2024/03/10 04:22:39;;;;;;;13.57;9.70;;;;;;;;;;4350957;32;317439;-69
2024/03/10 04:25:08;;;;;;;12.70;8.30;;;;;;;;;;4342230;32;317411;-69
2024/03/10 04:27:36;;;;;;;12.70;8.73;;;;;;;;;;4354068;32;317297;-71
2024/03/10 04:30:04;;;;;;;13.17;9.80;;;;;;;;;;4344484;32;317409;-70
2024/03/10 04:32:31;;;;;;;19.50;11.80;;;;;;;;;;4353226;32;317550;-71
2024/03/10 04:34:58;;;;;;;18.93;12.43;;;;;;;;;;4342657;32;346959;-70
2024/03/10 04:37:27;;;;;;;20.83;11.53;;;;;;;;;;4354538;32;333051;-72
2024/03/10 04:39:54;;;;;;;15.43;11.53;;;;;;;;;;4344369;32;317985;-69
2024/03/10 04:42:23;;;;;;;17.93;11.20;;;;;;;;;;4352334;32;318190;-70
2024/03/10 04:44:50;;;;;;;17.70;12.07;;;;;;;;;;4354549;32;318253;-69
2024/03/10 04:47:17;;;;;;;19.40;12.63;;;;;;;;;;4344686;32;318466;-68
2024/03/10 04:49:43;;;;;;;28.30;17.20;;;;;;;;;;4353006;32;318807;-68
2024/03/10 04:52:10;;;;;;;25.60;15.63;;;;;;;;;;4341904;32;327060;-69
2024/03/10 04:54:37;;;;;;;27.67;14.40;;;;;;;;;;4354289;32;318521;-70
2024/03/10 04:57:05;;;;;;;22.47;14.40;;;;;;;;;;4344634;32;327961;-69
2024/03/10 04:59:33;;;;;;;25.73;15.87;;;;;;;;;;4353308;32;318757;-69
2024/03/10 05:02:00;;;;;;;26.40;20.10;;;;;;;;;;4337531;32;318261;-69
2024/03/10 05:04:27;;;;;;;25.30;17.03;;;;;;;;;;4350839;32;318393;-68
2024/03/10 05:06:53;;;;;;;32.57;16.73;;;;;;;;;;4343141;32;317616;-69
2024/03/10 05:09:20;;;;;;;30.03;17.00;;;;;;;;;;4353059;32;350914;-69
2024/03/10 05:11:47;;;;;;;26.60;16.30;;;;;;;;;;4354150;32;318966;-68
2024/03/10 05:14:14;;;;;;;26.60;16.20;;;;;;;;;;4341833;32;318285;-68
2024/03/10 05:16:43;;;;;;;29.87;16.70;;;;;;;;;;4353100;32;318385;-69
2024/03/10 05:19:10;;;;;;;25.97;16.63;;;;;;;;;;4343893;32;318409;-68
2024/03/10 05:21:37;;;;;;;25.60;15.40;;;;;;;;;;4353868;32;318335;-71
2024/03/10 05:24:06;;;;;;;28.30;16.77;;;;;;;;;;4344064;32;318935;-69
2024/03/10 05:26:33;;;;;;;23.27;15.47;;;;;;;;;;4351488;32;318893;-69
2024/03/10 05:28:59;;;;;;;24.47;10.23;;;;;;;;;;4343552;32;318995;-69
2024/03/10 05:31:28;;;;;;;11.10;7.27;;;;;;;;;;4352845;32;358701;-68
2024/03/10 05:33:57;;;;;;;10.83;7.43;;;;;;;;;;4342978;32;317375;-69
2024/03/10 05:36:27;;;;;;;12.10;8.27;;;;;;;;;;4351774;32;317582;-68
2024/03/10 05:38:54;;;;;;;22.43;11.80;;;;;;;;;;4342157;32;316659;-70
2024/03/10 05:41:21;;;;;;;19.00;11.40;;;;;;;;;;4352874;32;318776;-69
2024/03/10 05:43:48;;;;;;;22.77;13.07;;;;;;;;;;4352621;32;318374;-68
2024/03/10 05:46:15;;;;;;;24.47;13.80;;;;;;;;;;4341005;32;317721;-70
2024/03/10 05:48:42;;;;;;;22.23;13.90;;;;;;;;;;4352808;32;317649;-69
2024/03/10 05:51:12;;;;;;;27.17;16.70;;;;;;;;;;4343968;32;318107;-69
2024/03/10 05:53:39;;;;;;;29.13;16.40;;;;;;;;;;4351998;32;354414;-68
2024/03/10 05:56:08;;;;;;;25.40;14.60;;;;;;;;;;4343121;32;339604;-68
2024/03/10 05:58:35;;;;;;;28.50;17.33;;;;;;;;;;4350246;32;318512;-70
2024/03/10 06:01:02;;;;;;;23.83;14.63;;;;;;;;;;4343518;32;317934;-69
2024/03/10 06:03:29;;;;;;;18.27;12.43;;;;;;;;;;4353665;32;318372;-69
2024/03/10 06:05:56;;;;;;;41.33;22.60;;;;;;;;;;4342784;32;318414;-68
2024/03/10 06:08:24;;;;;;;27.93;17.90;;;;;;;;;;4349835;32;318442;-68
2024/03/10 06:10:51;;;;;;;23.23;16.37;;;;;;;;;;4353693;32;318624;-68
2024/03/10 06:13:20;;;;;;;28.87;18.43;;;;;;;;;;4340178;32;418424;-69
2024/03/10 06:15:47;;;;;;;32.70;19.83;;;;;;;;;;4352989;32;318652;-68
2024/03/10 06:18:21;;;;;;;29.30;19.73;;;;;;;;;;4340794;32;317526;-69
2024/03/10 06:26:15;;;;;;;32.13;19.53;;;;;;;;;;4340280;32;319410;-68
2024/03/10 06:28:42;;;;;;;31.50;20.57;;;;;;;;;;4351801;32;318960;-69
2024/03/10 06:31:08;;;;;;;39.57;21.73;;;;;;;;;;4342027;32;319676;-70
2024/03/10 06:33:35;;;;;;;32.10;20.27;;;;;;;;;;4353073;32;319248;-68
2024/03/10 06:36:08;;;;;;;30.87;20.13;;;;;;;;;;4341931;32;319601;-69
2024/03/10 06:38:38;;;;;;;38.50;22.20;;;;;;;;;;4352832;32;319170;-69
2024/03/10 06:41:05;;;;;;;48.67;24.07;;;;;;;;;;4342990;32;319659;-70
2024/03/10 06:43:32;;;;;;;48.27;26.37;;;;;;;;;;4351244;32;356611;-69
2024/03/10 06:45:59;;;;;;;43.50;26.07;;;;;;;;;;4342541;32;319187;-69
2024/03/10 06:48:26;;;;;;;46.43;26.00;;;;;;;;;;4350422;32;319269;-69
2024/03/10 06:50:54;;;;;;;42.90;27.80;;;;;;;;;;4339566;32;390321;-68
2024/03/10 06:53:21;;;;;;;52.90;27.97;;;;;;;;;;4352781;32;319068;-68
2024/03/10 06:55:49;;;;;;;35.53;20.97;;;;;;;;;;4351604;32;319236;-68
2024/03/10 06:58:16;;;;;;;26.87;16.83;;;;;;;;;;4339211;32;318831;-69
2024/03/10 07:00:44;;;;;;;21.57;14.30;;;;;;;;;;4351628;32;319567;-68
2024/03/10 07:03:11;;;;;;;22.57;14.07;;;;;;;;;;4342861;32;319459;-69
2024/03/10 07:05:39;;;;;;;26.07;13.77;;;;;;;;;;4352000;32;318811;-68
2024/03/10 07:08:08;;;;;;;17.17;12.37;;;;;;;;;;4342984;32;319467;-70
2024/03/10 07:10:36;;;;;;;18.83;14.30;;;;;;;;;;4351125;32;333758;-68
2024/03/10 07:13:05;;;;;;;20.40;14.20;;;;;;;;;;4341251;32;318925;-70
2024/03/10 07:15:32;;;;;;;20.20;12.77;;;;;;;;;;4351243;32;319209;-68
2024/03/10 07:17:59;;;;;;;22.70;13.60;;;;;;;;;;4341478;32;319172;-67
2024/03/10 07:20:25;;;;;;;16.73;11.17;;;;;;;;;;4348567;32;319304;-68
2024/03/10 07:22:53;;;;;;;15.17;8.50;;;;;;;;;;4352214;32;319302;-68
2024/03/10 07:25:22;;;;;;;11.77;9.27;;;;;;;;;;4339662;32;418242;-68
2024/03/10 07:27:49;;;;;;;14.40;8.70;;;;;;;;;;4352427;32;318298;-69
2024/03/10 07:30:21;;;;;;;8.70;6.57;;;;;;;;;;4339848;32;318029;-70
2024/03/10 07:32:48;;;;;;;8.17;5.80;;;;;;;;;;4352469;32;317321;-67
2024/03/10 07:35:16;;;;;;;8.33;6.63;;;;;;;;;;4342470;32;317245;-70
2024/03/10 07:37:44;;;;;;;6.83;6.10;;;;;;;;;;4352012;32;317325;-68
2024/03/10 07:40:16;;;;;;;8.93;6.33;;;;;;;;;;4340526;32;316972;-68
2024/03/10 07:42:44;;;;;;;9.60;6.97;;;;;;;;;;4352703;32;317029;-68
2024/03/10 07:45:11;;;;;;;8.17;5.93;;;;;;;;;;4341309;32;317238;-68
2024/03/10 07:47:41;;;;;;;8.27;5.73;;;;;;;;;;4351470;32;317615;-69
2024/03/10 07:50:09;;;;;;;10.33;7.63;;;;;;;;;;4340512;32;317337;-68
2024/03/10 07:52:36;;;;;;;6.93;5.50;;;;;;;;;;4352773;32;334194;-70
2024/03/10 07:55:04;;;;;;;10.40;6.70;;;;;;;;;;4342781;32;317333;-68
2024/03/10 07:57:31;;;;;;;11.03;5.70;;;;;;;;;;4352441;32;318041;-69
2024/03/10 07:59:58;;;;;;;7.13;5.47;;;;;;;;;;4341465;32;318220;-68
2024/03/10 08:02:25;;;;;;;8.53;6.43;;;;;;;;;;4352677;32;316671;-68
2024/03/10 08:04:54;;;;;;;9.67;6.63;;;;;;;;;;4355201;32;317766;-70
2024/03/10 08:07:21;;;;;;;16.63;7.90;;;;;;;;;;4342660;32;418256;-68
2024/03/10 08:09:48;;;;;;;10.93;7.43;;;;;;;;;;4353948;32;318501;-70
2024/03/10 08:12:14;;;;;;;19.83;6.50;;;;;;;;;;4341471;32;332591;-69
2024/03/10 08:14:43;;;;;;;8.77;5.83;;;;;;;;;;4354621;32;318306;-68
2024/03/10 08:17:10;;;;;;;11.60;7.43;;;;;;;;;;4345085;32;317225;-68
2024/03/10 08:19:37;;;;;;;8.00;5.97;;;;;;;;;;4355114;32;317542;-70
2024/03/10 08:22:06;;;;;;;10.03;7.10;;;;;;;;;;4343136;32;335213;-71
2024/03/10 08:24:33;;;;;;;17.03;8.70;;;;;;;;;;4354820;32;318325;-70
2024/03/10 08:27:02;;;;;;;16.37;10.63;;;;;;;;;;4344136;32;318756;-68
2024/03/10 08:29:28;;;;;;;9.70;6.80;;;;;;;;;;4353464;32;319557;-68
2024/03/10 08:31:56;;;;;;;11.77;7.63;;;;;;;;;;4344977;32;317018;-70
2024/03/10 08:34:23;;;;;;;12.93;8.00;;;;;;;;;;4351374;32;318368;-70
2024/03/10 08:36:50;;;;;;;16.50;7.80;;;;;;;;;;4354433;32;317871;-70
2024/03/10 08:39:19;;;;;;;10.17;6.20;;;;;;;;;;4344688;32;318292;-68
2024/03/10 08:41:48;;;;;;;10.43;6.30;;;;;;;;;;4354846;32;318318;-70
2024/03/10 08:44:15;;;;;;;9.00;5.50;;;;;;;;;;4341834;32;318459;-68
2024/03/10 08:46:44;;;;;;;10.50;6.27;;;;;;;;;;4354639;32;316428;-69
2024/03/10 08:49:11;;;;;;;13.77;8.13;;;;;;;;;;4342979;32;340280;-69
2024/03/10 08:51:38;;;;;;;9.10;5.20;;;;;;;;;;4353938;32;318308;-69
2024/03/10 08:54:07;;;;;;;7.93;5.13;;;;;;;;;;4343675;32;317274;-68
2024/03/10 08:56:39;;;;;;;8.40;4.43;;;;;;;;;;4354286;32;317352;-67
2024/03/10 08:59:09;;;;;;;9.67;4.77;;;;;;;;;;4344772;32;317370;-68
2024/03/10 09:01:35;;;;;;;12.33;5.90;;;;;;;;;;4353641;32;317426;-68
2024/03/10 09:04:03;;;;;;;8.20;4.90;;;;;;;;;;4331092;32;318384;-68
2024/03/10 09:06:30;;;;;;;9.83;6.63;;;;;;;;;;4351695;32;317174;-69
2024/03/10 09:08:58;;;;;;;12.20;5.50;;;;;;;;;;4344306;32;317132;-69
2024/03/10 09:11:25;;;;;;;11.10;5.40;;;;;;;;;;4354287;32;318186;-68
2024/03/10 09:13:53;;;;;;;7.50;4.67;;;;;;;;;;4353574;32;318225;-68
2024/03/10 09:16:22;;;;;;;8.63;5.03;;;;;;;;;;4339334;32;416499;-69
2024/03/10 09:18:49;;;;;;;9.67;5.50;;;;;;;;;;4352552;32;317296;-69
2024/03/10 09:21:16;;;;;;;7.60;5.47;;;;;;;;;;4341418;32;359084;-68
2024/03/10 09:23:43;;;;;;;12.03;5.60;;;;;;;;;;4352898;32;317452;-69
2024/03/10 09:26:10;;;;;;;12.23;7.17;;;;;;;;;;4328104;32;318262;-69
2024/03/10 09:28:36;;;;;;;7.93;4.20;;;;;;;;;;4352860;32;318380;-69
2024/03/10 09:31:07;;;;;;;13.27;5.47;;;;;;;;;;4344483;32;317152;-69
2024/03/10 09:33:34;;;;;;;14.60;5.30;;;;;;;;;;4352722;32;318487;-68
2024/03/10 09:36:01;;;;;;;8.73;4.57;;;;;;;;;;4343751;32;329863;-70
2024/03/10 09:38:28;;;;;;;11.97;5.73;;;;;;;;;;4351429;32;331843;-68
2024/03/10 09:40:59;;;;;;;14.40;5.97;;;;;;;;;;4342929;32;318183;-70
2024/03/10 09:43:26;;;;;;;18.00;5.33;;;;;;;;;;4352258;32;355681;-71
2024/03/10 09:45:54;;;;;;;5.80;4.17;;;;;;;;;;4352220;32;335466;-68
2024/03/10 09:48:24;;;;;;;8.03;4.47;;;;;;;;;;4337545;32;416492;-68
2024/03/10 09:50:51;;;;;;;6.57;4.73;;;;;;;;;;4352681;32;317199;-68
2024/03/10 09:53:18;;;;;;;14.37;6.63;;;;;;;;;;4341211;32;416941;-69
2024/03/10 09:55:45;;;;;;;9.70;5.47;;;;;;;;;;4353224;32;318519;-69
2024/03/10 09:58:14;;;;;;;6.10;3.57;;;;;;;;;;4340404;32;317133;-72
2024/03/10 10:00:44;;;;;;;7.97;3.03;;;;;;;;;;4351539;32;340460;-69
2024/03/10 10:03:12;;;;;;;8.43;3.20;;;;;;;;;;4342418;32;316357;-68
2024/03/10 10:05:44;;;;;;;7.93;3.80;;;;;;;;;;4352450;32;317287;-69
2024/03/10 10:08:12;;;;;;;13.57;5.20;;;;;;;;;;4341033;32;317319;-69
2024/03/10 10:10:41;;;;;;;5.82;3.58;;;;;;;;;;4353121;32;318403;-68
2024/03/10 10:13:08;;;;;;;10.40;4.10;;;;;;;;;;4343751;32;317376;-70
2024/03/10 10:15:35;;;;;;;14.33;4.40;;;;;;;;;;4339567;32;318184;-70
2024/03/10 10:18:03;;;;;;;8.17;3.80;;;;;;;;;;4343323;32;317727;-69
2024/03/10 10:20:30;;;;;;;12.95;4.45;;;;;;;;;;4349693;32;316432;-68
2024/03/10 10:23:00;;;;;;;9.65;4.53;;;;;;;;;;4341795;32;318417;-69
2024/03/10 10:25:27;;;;;;;5.93;3.10;;;;;;;;;;4351903;32;317333;-68
2024/03/10 10:27:55;;;;;;;9.50;3.93;;;;;;;;;;4343659;32;317289;-68
2024/03/10 10:30:25;;;;;;;8.33;3.67;;;;;;;;;;4348504;32;316395;-68
2024/03/10 10:33:04;;;;;;;8.07;3.63;;;;;;;;;;4351597;32;333777;-71
2024/03/10 10:35:33;;;;;;;6.80;3.47;;;;;;;;;;4340055;32;418121;-69
2024/03/10 10:38:04;;;;;;;5.35;3.08;;;;;;;;;;4343315;32;317244;-68
2024/03/10 10:40:32;;;;;;;8.47;3.70;;;;;;;;;;4350324;32;317172;-68
2024/03/10 10:42:59;;;;;;;8.33;4.63;;;;;;;;;;4342198;32;347262;-68
2024/03/10 10:45:27;;;;;;;12.07;4.25;;;;;;;;;;4352960;32;317286;-69
2024/03/10 10:47:54;;;;;;;5.77;2.73;;;;;;;;;;4340728;32;318306;-71
2024/03/10 10:50:31;;;;;;;11.52;3.95;;;;;;;;;;4350665;32;317441;-68
2024/03/10 10:52:58;;;;;;;12.10;3.80;;;;;;;;;;4341638;32;318120;-68
2024/03/10 10:55:27;;;;;;;4.35;3.15;;;;;;;;;;4352493;32;318350;-68
2024/03/10 10:57:57;;;;;;;5.68;2.85;;;;;;;;;;4341896;32;316978;-68
2024/03/10 11:00:28;;;;;;;8.20;4.25;;;;;;;;;;4350379;32;317119;-68
2024/03/10 11:03:14;;;;;;;6.43;3.10;;;;;;;;;;4341990;32;317112;-71
2024/03/10 11:05:42;;;;;;;10.63;3.62;;;;;;;;;;4353540;32;316455;-69
2024/03/10 11:08:13;;;;;;;11.97;4.07;;;;;;;;;;4343896;32;318152;-69
2024/03/10 11:10:45;;;;;;;10.00;3.40;;;;;;;;;;4353075;32;318462;-68
2024/03/10 11:13:14;;;;;;;8.57;4.07;;;;;;;;;;4341217;32;338592;-70
2024/03/10 11:15:40;;;;;;;10.00;3.35;;;;;;;;;;4352236;32;316990;-70
2024/03/10 11:18:25;;;;;;;9.80;3.47;;;;;;;;;;4339363;32;318237;-70
2024/03/10 11:20:53;;;;;;;9.27;3.53;;;;;;;;;;4350113;32;317373;-69
2024/03/10 11:23:27;;;;;;;5.18;3.65;;;;;;;;;;4339725;32;416930;-69
2024/03/10 11:25:55;;;;;;;4.87;2.80;;;;;;;;;;4340877;32;380588;-69
2024/03/10 11:28:25;;;;;;;5.37;3.17;;;;;;;;;;4348185;32;334478;-68
2024/03/10 11:30:56;;;;;;;5.97;3.40;;;;;;;;;;4351346;32;317175;-72
2024/03/10 11:33:23;;;;;;;12.15;4.15;;;;;;;;;;4339889;32;416689;-68
2024/03/10 11:35:51;;;;;;;10.15;3.17;;;;;;;;;;4350696;32;318185;-69
2024/03/10 11:38:20;;;;;;;9.68;3.10;;;;;;;;;;4338903;32;318185;-69
2024/03/10 11:40:55;;;;;;;9.88;2.80;;;;;;;;;;4351317;32;317536;-70
2024/03/10 11:43:25;;;;;;;5.87;2.62;;;;;;;;;;4339504;32;416765;-71
2024/03/10 11:45:53;;;;;;;6.47;3.00;;;;;;;;;;4352100;32;316549;-70
2024/03/10 11:48:20;;;;;;;8.13;3.12;;;;;;;;;;4337318;32;418350;-69
2024/03/10 11:50:49;;;;;;;7.28;2.97;;;;;;;;;;4350149;32;316585;-69
2024/03/10 11:53:16;;;;;;;8.02;4.07;;;;;;;;;;4340998;32;317260;-68
2024/03/10 11:55:44;;;;;;;6.05;2.90;;;;;;;;;;4351929;32;317308;-70
2024/03/10 11:58:11;;;;;;;8.23;3.57;;;;;;;;;;4339053;32;317347;-69
2024/03/10 12:00:39;;;;;;;4.87;3.15;;;;;;;;;;4336749;32;333438;-71
2024/03/10 12:03:08;;;;;;;4.28;3.15;;;;;;;;;;4342407;32;317312;-68
2024/03/10 12:05:35;;;;;;;14.57;3.37;;;;;;;;;;4352057;32;316753;-70
2024/03/10 12:08:05;;;;;;;5.60;3.58;;;;;;;;;;4340755;32;318221;-69
2024/03/10 12:10:33;;;;;;;8.02;3.45;;;;;;;;;;4350783;32;316499;-70
2024/03/10 12:13:00;;;;;;;9.00;3.22;;;;;;;;;;4341725;32;317156;-71
2024/03/10 12:15:28;;;;;;;11.82;3.42;;;;;;;;;;4352097;32;316369;-69
2024/03/10 12:18:00;;;;;;;6.03;3.10;;;;;;;;;;4340809;32;318592;-70
2024/03/10 12:20:27;;;;;;;4.50;2.35;;;;;;;;;;4349568;32;317386;-68
2024/03/10 12:22:58;;;;;;;9.75;3.20;;;;;;;;;;4340987;32;317367;-70
2024/03/10 12:25:25;;;;;;;10.07;2.87;;;;;;;;;;4351618;32;317260;-69
2024/03/10 12:27:50;;;;;;;6.72;2.72;;;;;;;;;;4350811;32;317682;-70
2024/03/10 12:30:19;;;;;;;11.83;6.33;;;;;;;;;;4339758;32;317329;-69
2024/03/10 12:32:50;;;;;;;9.45;3.50;;;;;;;;;;4337410;32;318282;-69
2024/03/10 12:35:19;;;;;;;9.80;3.12;;;;;;;;;;4341171;32;317022;-71
2024/03/10 12:37:47;;;;;;;7.82;2.70;;;;;;;;;;4350671;32;317201;-69
2024/03/10 12:40:15;;;;;;;10.40;3.87;;;;;;;;;;4339626;32;317177;-68
2024/03/10 12:42:44;;;;;;;5.30;2.97;;;;;;;;;;4351387;32;318502;-69
2024/03/10 12:45:15;;;;;;;5.55;3.10;;;;;;;;;;4341456;32;317314;-68
2024/03/10 12:47:43;;;;;;;10.98;3.85;;;;;;;;;;4352189;32;316980;-69
2024/03/10 12:50:10;;;;;;;7.25;3.12;;;;;;;;;;4342431;32;318163;-69
2024/03/10 12:52:38;;;;;;;11.02;3.60;;;;;;;;;;4353266;32;317337;-70
2024/03/10 12:55:07;;;;;;;9.23;3.95;;;;;;;;;;4342615;32;348386;-69
2024/03/10 12:57:34;;;;;;;9.55;4.05;;;;;;;;;;4354657;32;317111;-69
2024/03/10 13:00:06;;;;;;;11.38;2.95;;;;;;;;;;4344296;32;317687;-70
2024/03/10 13:02:34;;;;;;;10.70;3.50;;;;;;;;;;4354657;32;318408;-68
2024/03/10 13:05:00;;;;;;;14.40;3.87;;;;;;;;;;4343853;32;318440;-68
2024/03/10 13:07:27;;;;;;;9.27;4.12;;;;;;;;;;4354369;32;318204;-69
2024/03/10 13:09:55;;;;;;;7.37;3.60;;;;;;;;;;4343319;32;317328;-69
2024/03/10 13:12:22;;;;;;;18.50;5.20;;;;;;;;;;4351646;32;316398;-70
2024/03/10 13:14:49;;;;;;;12.50;5.07;;;;;;;;;;4353198;32;317804;-70
2024/03/10 13:17:17;;;;;;;27.20;12.37;;;;;;;;;;4343377;32;318512;-70
2024/03/10 13:19:44;;;;;;;15.32;5.00;;;;;;;;;;4352386;32;319229;-69
2024/03/10 13:22:11;;;;;;;8.35;3.90;;;;;;;;;;4341136;32;318537;-69
2024/03/10 13:24:38;;;;;;;7.37;3.30;;;;;;;;;;4353958;32;317230;-69
2024/03/10 13:27:06;;;;;;;11.70;4.20;;;;;;;;;;4344488;32;317194;-68
2024/03/10 13:29:33;;;;;;;11.95;3.22;;;;;;;;;;4352943;32;318260;-68
2024/03/10 13:32:01;;;;;;;11.10;3.35;;;;;;;;;;4344079;32;318188;-68
2024/03/10 13:34:28;;;;;;;12.73;3.35;;;;;;;;;;4350999;32;317588;-72
2024/03/10 13:36:55;;;;;;;9.27;2.55;;;;;;;;;;4343591;32;334583;-69
2024/03/10 13:39:21;;;;;;;13.55;3.03;;;;;;;;;;4353652;32;317495;-71
2024/03/10 13:41:48;;;;;;;8.23;2.97;;;;;;;;;;4353658;32;318273;-69
2024/03/10 13:44:16;;;;;;;14.35;2.90;;;;;;;;;;4340172;32;317300;-69
2024/03/10 13:46:43;;;;;;;9.15;2.85;;;;;;;;;;4352247;32;318354;-69
2024/03/10 13:49:09;;;;;;;18.23;3.60;;;;;;;;;;4343422;32;317314;-69
2024/03/10 13:51:36;;;;;;;13.13;4.15;;;;;;;;;;4353746;32;317605;-69
2024/03/10 13:54:03;;;;;;;16.37;5.43;;;;;;;;;;4334228;32;318323;-71
2024/03/10 13:56:31;;;;;;;19.23;5.15;;;;;;;;;;4349800;32;343533;-69
2024/03/10 13:58:58;;;;;;;10.00;3.87;;;;;;;;;;4338318;32;318457;-69
2024/03/10 14:01:27;;;;;;;13.13;3.58;;;;;;;;;;4352452;32;318340;-68
2024/03/10 14:03:57;;;;;;;16.60;3.65;;;;;;;;;;4343051;32;318107;-69
2024/03/10 14:06:24;;;;;;;17.00;3.12;;;;;;;;;;4351448;32;318442;-68
2024/03/10 14:08:51;;;;;;;24.42;2.85;;;;;;;;;;4352377;32;318624;-68
2024/03/10 14:11:17;;;;;;;18.15;2.78;;;;;;;;;;4336370;32;318536;-69
2024/03/10 14:13:44;;;;;;;15.20;3.83;;;;;;;;;;4352707;32;318424;-69
2024/03/10 14:16:11;;;;;;;11.60;3.00;;;;;;;;;;4341167;32;318697;-69
2024/03/10 14:18:39;;;;;;;17.37;2.28;;;;;;;;;;4351885;32;317828;-69
2024/03/10 14:21:09;;;;;;;22.08;3.58;;;;;;;;;;4342367;32;318532;-72
2024/03/10 14:23:35;;;;;;;14.25;2.72;;;;;;;;;;4353551;32;318097;-68
2024/03/10 14:26:04;;;;;;;8.70;2.58;;;;;;;;;;4343596;32;318545;-68
2024/03/10 14:28:31;;;;;;;18.98;3.53;;;;;;;;;;4352329;32;317337;-69
2024/03/10 14:30:58;;;;;;;12.35;4.22;;;;;;;;;;4341531;32;353125;-69
2024/03/10 14:33:25;;;;;;;9.15;3.03;;;;;;;;;;4351526;32;318307;-69
2024/03/10 14:35:53;;;;;;;8.90;2.78;;;;;;;;;;4350649;32;356286;-71
2024/03/10 14:38:21;;;;;;;11.75;3.12;;;;;;;;;;4336900;32;416858;-68
2024/03/10 14:40:49;;;;;;;11.75;3.62;;;;;;;;;;4351128;32;318538;-72
2024/03/10 14:43:17;;;;;;;11.60;3.50;;;;;;;;;;4343159;32;319075;-68